sensor_id;sensor_type;location;lat;lon;timestamp;P1;durP1;ratioP1;P2;durP2;ratioP2
73359;SDS011;63092;43.582;19.528;2024-03-08T00:00:05;22.48;;;14.50;;
73359;SDS011;63092;43.582;19.528;2024-03-08T00:02:55;24.92;;;15.48;;
73359;SDS011;63092;43.582;19.528;2024-03-08T00:05:20;22.63;;;14.75;;
73359;SDS011;63092;43.582;19.528;2024-03-08T00:07:46;22.98;;;14.70;;
73359;SDS011;63092;43.582;19.528;2024-03-08T00:10:12;23.20;;;14.57;;
73359;SDS011;63092;43.582;19.528;2024-03-08T00:17:38;19.38;;;12.18;;
73359;SDS011;63092;43.582;19.528;2024-03-08T00:20:08;18.58;;;11.45;;
73359;SDS011;63092;43.582;19.528;2024-03-08T00:22:34;19.95;;;11.85;;
73359;SDS011;63092;43.582;19.528;2024-03-08T00:25:01;21.27;;;12.88;;
73359;SDS011;63092;43.582;19.528;2024-03-08T00:27:27;20.65;;;13.27;;
73359;SDS011;63092;43.582;19.528;2024-03-08T00:29:55;21.85;;;12.77;;
73359;SDS011;63092;43.582;19.528;2024-03-08T00:32:21;23.63;;;13.57;;
73359;SDS011;63092;43.582;19.528;2024-03-08T00:34:49;19.80;;;12.60;;
73359;SDS011;63092;43.582;19.528;2024-03-08T00:37:19;23.20;;;14.30;;
73359;SDS011;63092;43.582;19.528;2024-03-08T00:39:48;22.95;;;13.95;;
73359;SDS011;63092;43.582;19.528;2024-03-08T00:42:15;21.10;;;13.10;;
73359;SDS011;63092;43.582;19.528;2024-03-08T00:44:41;21.98;;;13.57;;
73359;SDS011;63092;43.582;19.528;2024-03-08T00:47:07;23.00;;;13.93;;
73359;SDS011;63092;43.582;19.528;2024-03-08T00:49:33;22.95;;;14.60;;
73359;SDS011;63092;43.582;19.528;2024-03-08T00:51:59;24.98;;;15.20;;
73359;SDS011;63092;43.582;19.528;2024-03-08T00:54:24;21.13;;;13.52;;
73359;SDS011;63092;43.582;19.528;2024-03-08T00:56:50;22.70;;;14.20;;
73359;SDS011;63092;43.582;19.528;2024-03-08T00:59:16;21.30;;;13.60;;
73359;SDS011;63092;43.582;19.528;2024-03-08T01:01:42;20.48;;;13.00;;
73359;SDS011;63092;43.582;19.528;2024-03-08T01:04:09;21.52;;;13.63;;
73359;SDS011;63092;43.582;19.528;2024-03-08T01:06:35;20.98;;;12.43;;
73359;SDS011;63092;43.582;19.528;2024-03-08T01:09:01;22.42;;;13.32;;
73359;SDS011;63092;43.582;19.528;2024-03-08T01:11:27;21.15;;;12.98;;
73359;SDS011;63092;43.582;19.528;2024-03-08T01:13:53;20.77;;;12.68;;
73359;SDS011;63092;43.582;19.528;2024-03-08T01:16:19;20.52;;;12.40;;
73359;SDS011;63092;43.582;19.528;2024-03-08T01:18:48;20.98;;;12.80;;
73359;SDS011;63092;43.582;19.528;2024-03-08T01:21:13;20.13;;;12.95;;
73359;SDS011;63092;43.582;19.528;2024-03-08T01:23:39;20.55;;;13.18;;
73359;SDS011;63092;43.582;19.528;2024-03-08T01:26:05;22.92;;;14.32;;
73359;SDS011;63092;43.582;19.528;2024-03-08T01:28:31;23.20;;;13.93;;
73359;SDS011;63092;43.582;19.528;2024-03-08T01:30:59;23.70;;;13.98;;
73359;SDS011;63092;43.582;19.528;2024-03-08T01:33:25;25.58;;;14.77;;
73359;SDS011;63092;43.582;19.528;2024-03-08T01:35:54;23.27;;;15.15;;
73359;SDS011;63092;43.582;19.528;2024-03-08T01:38:22;22.25;;;14.07;;
73359;SDS011;63092;43.582;19.528;2024-03-08T01:40:48;21.17;;;12.82;;
73359;SDS011;63092;43.582;19.528;2024-03-08T01:43:18;17.77;;;11.68;;
73359;SDS011;63092;43.582;19.528;2024-03-08T01:45:43;20.95;;;13.02;;
73359;SDS011;63092;43.582;19.528;2024-03-08T01:48:09;20.38;;;12.85;;
73359;SDS011;63092;43.582;19.528;2024-03-08T01:50:35;19.00;;;11.52;;
73359;SDS011;63092;43.582;19.528;2024-03-08T01:53:01;21.05;;;13.02;;
73359;SDS011;63092;43.582;19.528;2024-03-08T01:55:28;18.63;;;10.93;;
73359;SDS011;63092;43.582;19.528;2024-03-08T01:57:54;19.52;;;11.60;;
73359;SDS011;63092;43.582;19.528;2024-03-08T02:00:20;19.77;;;11.75;;
73359;SDS011;63092;43.582;19.528;2024-03-08T02:02:46;19.02;;;11.95;;
73359;SDS011;63092;43.582;19.528;2024-03-08T02:05:14;16.58;;;11.15;;
73359;SDS011;63092;43.582;19.528;2024-03-08T02:07:41;16.88;;;10.65;;
73359;SDS011;63092;43.582;19.528;2024-03-08T02:12:37;19.30;;;10.55;;
73359;SDS011;63092;43.582;19.528;2024-03-08T02:15:03;15.63;;;9.85;;
73359;SDS011;63092;43.582;19.528;2024-03-08T02:17:31;14.63;;;9.13;;
73359;SDS011;63092;43.582;19.528;2024-03-08T02:19:58;21.35;;;11.95;;
73359;SDS011;63092;43.582;19.528;2024-03-08T02:22:26;17.48;;;10.02;;
73359;SDS011;63092;43.582;19.528;2024-03-08T02:24:56;15.00;;;8.80;;
73359;SDS011;63092;43.582;19.528;2024-03-08T02:27:26;17.52;;;10.68;;
73359;SDS011;63092;43.582;19.528;2024-03-08T02:29:56;16.50;;;10.15;;
73359;SDS011;63092;43.582;19.528;2024-03-08T02:34:48;14.45;;;8.40;;
73359;SDS011;63092;43.582;19.528;2024-03-08T02:37:14;16.20;;;9.00;;
73359;SDS011;63092;43.582;19.528;2024-03-08T02:39:43;19.97;;;9.20;;
73359;SDS011;63092;43.582;19.528;2024-03-08T02:42:09;15.20;;;8.88;;
73359;SDS011;63092;43.582;19.528;2024-03-08T02:44:34;12.95;;;7.70;;
73359;SDS011;63092;43.582;19.528;2024-03-08T02:47:00;13.80;;;8.40;;
73359;SDS011;63092;43.582;19.528;2024-03-08T02:49:26;16.73;;;9.25;;
73359;SDS011;63092;43.582;19.528;2024-03-08T02:51:52;22.35;;;11.77;;
73359;SDS011;63092;43.582;19.528;2024-03-08T02:54:19;21.55;;;11.25;;
73359;SDS011;63092;43.582;19.528;2024-03-08T02:56:45;15.05;;;8.98;;
73359;SDS011;63092;43.582;19.528;2024-03-08T02:59:12;14.43;;;8.88;;
73359;SDS011;63092;43.582;19.528;2024-03-08T03:01:38;21.65;;;13.35;;
73359;SDS011;63092;43.582;19.528;2024-03-08T03:04:04;16.85;;;9.80;;
73359;SDS011;63092;43.582;19.528;2024-03-08T03:06:30;12.60;;;7.25;;
73359;SDS011;63092;43.582;19.528;2024-03-08T03:08:56;16.10;;;9.40;;
73359;SDS011;63092;43.582;19.528;2024-03-08T03:11:22;23.75;;;13.23;;
73359;SDS011;63092;43.582;19.528;2024-03-08T03:13:48;16.98;;;9.95;;
73359;SDS011;63092;43.582;19.528;2024-03-08T03:16:17;13.65;;;8.05;;
73359;SDS011;63092;43.582;19.528;2024-03-08T03:18:47;22.88;;;10.27;;
73359;SDS011;63092;43.582;19.528;2024-03-08T03:21:14;16.10;;;7.53;;
73359;SDS011;63092;43.582;19.528;2024-03-08T03:23:40;21.58;;;10.43;;
73359;SDS011;63092;43.582;19.528;2024-03-08T03:26:07;27.00;;;12.35;;
73359;SDS011;63092;43.582;19.528;2024-03-08T03:28:37;17.13;;;8.93;;
73359;SDS011;63092;43.582;19.528;2024-03-08T03:31:07;16.75;;;9.25;;
73359;SDS011;63092;43.582;19.528;2024-03-08T03:33:35;16.02;;;8.75;;
73359;SDS011;63092;43.582;19.528;2024-03-08T03:36:02;16.27;;;7.97;;
73359;SDS011;63092;43.582;19.528;2024-03-08T03:38:30;13.82;;;8.35;;
73359;SDS011;63092;43.582;19.528;2024-03-08T03:40:55;12.95;;;7.50;;
73359;SDS011;63092;43.582;19.528;2024-03-08T03:43:29;20.90;;;11.43;;
73359;SDS011;63092;43.582;19.528;2024-03-08T03:45:54;18.55;;;10.45;;
73359;SDS011;63092;43.582;19.528;2024-03-08T03:48:20;16.67;;;9.57;;
73359;SDS011;63092;43.582;19.528;2024-03-08T03:50:46;12.57;;;7.78;;
73359;SDS011;63092;43.582;19.528;2024-03-08T03:53:12;15.60;;;8.48;;
73359;SDS011;63092;43.582;19.528;2024-03-08T03:55:38;15.50;;;8.88;;
73359;SDS011;63092;43.582;19.528;2024-03-08T03:58:04;13.07;;;7.82;;
73359;SDS011;63092;43.582;19.528;2024-03-08T04:00:29;13.23;;;7.03;;
73359;SDS011;63092;43.582;19.528;2024-03-08T04:02:55;15.10;;;7.68;;
73359;SDS011;63092;43.582;19.528;2024-03-08T04:05:24;14.35;;;9.10;;
73359;SDS011;63092;43.582;19.528;2024-03-08T04:07:50;13.55;;;8.05;;
73359;SDS011;63092;43.582;19.528;2024-03-08T04:10:15;13.15;;;8.15;;
73359;SDS011;63092;43.582;19.528;2024-03-08T04:12:41;13.52;;;7.63;;
73359;SDS011;63092;43.582;19.528;2024-03-08T04:15:07;11.57;;;7.05;;
73359;SDS011;63092;43.582;19.528;2024-03-08T04:17:33;13.35;;;8.00;;
73359;SDS011;63092;43.582;19.528;2024-03-08T04:20:05;13.48;;;7.93;;
73359;SDS011;63092;43.582;19.528;2024-03-08T04:22:35;15.15;;;8.75;;
73359;SDS011;63092;43.582;19.528;2024-03-08T04:25:02;16.15;;;8.73;;
73359;SDS011;63092;43.582;19.528;2024-03-08T04:27:28;14.18;;;8.40;;
73359;SDS011;63092;43.582;19.528;2024-03-08T04:29:54;14.68;;;8.55;;
73359;SDS011;63092;43.582;19.528;2024-03-08T04:32:20;13.88;;;8.50;;
73359;SDS011;63092;43.582;19.528;2024-03-08T04:34:46;13.07;;;7.72;;
73359;SDS011;63092;43.582;19.528;2024-03-08T04:37:11;11.95;;;7.50;;
73359;SDS011;63092;43.582;19.528;2024-03-08T04:39:39;13.10;;;7.78;;
73359;SDS011;63092;43.582;19.528;2024-03-08T04:42:05;14.63;;;8.13;;
73359;SDS011;63092;43.582;19.528;2024-03-08T04:44:36;12.95;;;7.22;;
73359;SDS011;63092;43.582;19.528;2024-03-08T04:47:03;15.32;;;8.02;;
73359;SDS011;63092;43.582;19.528;2024-03-08T04:49:31;14.90;;;8.60;;
73359;SDS011;63092;43.582;19.528;2024-03-08T04:52:02;16.23;;;10.05;;
73359;SDS011;63092;43.582;19.528;2024-03-08T04:54:29;18.60;;;10.68;;
73359;SDS011;63092;43.582;19.528;2024-03-08T04:56:55;24.60;;;16.13;;
73359;SDS011;63092;43.582;19.528;2024-03-08T04:59:21;17.88;;;10.13;;
73359;SDS011;63092;43.582;19.528;2024-03-08T05:01:46;13.52;;;7.75;;
73359;SDS011;63092;43.582;19.528;2024-03-08T05:04:12;11.55;;;7.55;;
73359;SDS011;63092;43.582;19.528;2024-03-08T05:06:38;11.25;;;6.82;;
73359;SDS011;63092;43.582;19.528;2024-03-08T05:09:04;13.18;;;7.85;;
73359;SDS011;63092;43.582;19.528;2024-03-08T05:11:38;14.15;;;8.80;;
73359;SDS011;63092;43.582;19.528;2024-03-08T05:14:05;14.63;;;8.48;;
73359;SDS011;63092;43.582;19.528;2024-03-08T05:16:30;14.13;;;7.68;;
73359;SDS011;63092;43.582;19.528;2024-03-08T05:18:56;13.35;;;7.63;;
73359;SDS011;63092;43.582;19.528;2024-03-08T05:21:22;15.05;;;8.90;;
73359;SDS011;63092;43.582;19.528;2024-03-08T05:23:48;16.85;;;10.35;;
73359;SDS011;63092;43.582;19.528;2024-03-08T05:26:15;29.98;;;13.93;;
73359;SDS011;63092;43.582;19.528;2024-03-08T05:28:41;35.45;;;16.27;;
73359;SDS011;63092;43.582;19.528;2024-03-08T05:31:07;19.15;;;10.55;;
73359;SDS011;63092;43.582;19.528;2024-03-08T05:33:33;15.02;;;8.40;;
73359;SDS011;63092;43.582;19.528;2024-03-08T05:36:00;17.58;;;9.65;;
73359;SDS011;63092;43.582;19.528;2024-03-08T05:38:28;17.77;;;11.77;;
73359;SDS011;63092;43.582;19.528;2024-03-08T05:40:54;17.90;;;9.88;;
73359;SDS011;63092;43.582;19.528;2024-03-08T05:43:20;16.73;;;10.13;;
73359;SDS011;63092;43.582;19.528;2024-03-08T05:45:46;19.30;;;11.02;;
73359;SDS011;63092;43.582;19.528;2024-03-08T05:48:13;15.90;;;9.77;;
73359;SDS011;63092;43.582;19.528;2024-03-08T05:50:38;18.52;;;11.10;;
73359;SDS011;63092;43.582;19.528;2024-03-08T05:53:04;18.17;;;10.27;;
73359;SDS011;63092;43.582;19.528;2024-03-08T05:55:32;17.75;;;11.00;;
73359;SDS011;63092;43.582;19.528;2024-03-08T05:58:01;17.67;;;10.20;;
73359;SDS011;63092;43.582;19.528;2024-03-08T06:00:27;25.10;;;10.65;;
73359;SDS011;63092;43.582;19.528;2024-03-08T06:02:53;19.15;;;11.13;;
73359;SDS011;63092;43.582;19.528;2024-03-08T06:05:19;33.38;;;18.88;;
73359;SDS011;63092;43.582;19.528;2024-03-08T06:07:44;28.48;;;15.25;;
73359;SDS011;63092;43.582;19.528;2024-03-08T06:10:10;21.38;;;12.13;;
73359;SDS011;63092;43.582;19.528;2024-03-08T06:12:37;19.58;;;11.30;;
73359;SDS011;63092;43.582;19.528;2024-03-08T06:15:07;20.98;;;11.02;;
73359;SDS011;63092;43.582;19.528;2024-03-08T06:17:34;22.10;;;11.32;;
73359;SDS011;63092;43.582;19.528;2024-03-08T06:20:03;18.05;;;10.77;;
73359;SDS011;63092;43.582;19.528;2024-03-08T06:22:35;21.45;;;11.88;;
73359;SDS011;63092;43.582;19.528;2024-03-08T06:25:07;19.60;;;10.50;;
73359;SDS011;63092;43.582;19.528;2024-03-08T06:27:42;18.92;;;10.48;;
73359;SDS011;63092;43.582;19.528;2024-03-08T06:30:09;17.63;;;10.10;;
73359;SDS011;63092;43.582;19.528;2024-03-08T06:32:36;18.02;;;11.35;;
73359;SDS011;63092;43.582;19.528;2024-03-08T06:35:02;19.17;;;10.82;;
73359;SDS011;63092;43.582;19.528;2024-03-08T06:37:32;19.27;;;10.77;;
73359;SDS011;63092;43.582;19.528;2024-03-08T06:39:58;17.25;;;10.73;;
73359;SDS011;63092;43.582;19.528;2024-03-08T06:42:25;20.20;;;11.63;;
73359;SDS011;63092;43.582;19.528;2024-03-08T06:44:58;25.48;;;15.00;;
73359;SDS011;63092;43.582;19.528;2024-03-08T06:47:29;25.75;;;14.07;;
73359;SDS011;63092;43.582;19.528;2024-03-08T06:49:55;26.00;;;15.35;;
73359;SDS011;63092;43.582;19.528;2024-03-08T06:52:21;33.67;;;20.38;;
73359;SDS011;63092;43.582;19.528;2024-03-08T06:54:47;23.65;;;13.90;;
73359;SDS011;63092;43.582;19.528;2024-03-08T06:57:14;24.77;;;14.10;;
73359;SDS011;63092;43.582;19.528;2024-03-08T06:59:41;22.33;;;13.48;;
73359;SDS011;63092;43.582;19.528;2024-03-08T07:02:07;22.17;;;14.20;;
73359;SDS011;63092;43.582;19.528;2024-03-08T07:04:34;21.92;;;13.30;;
73359;SDS011;63092;43.582;19.528;2024-03-08T07:07:03;23.53;;;13.60;;
73359;SDS011;63092;43.582;19.528;2024-03-08T07:09:29;35.15;;;13.38;;
73359;SDS011;63092;43.582;19.528;2024-03-08T07:11:55;20.38;;;11.98;;
73359;SDS011;63092;43.582;19.528;2024-03-08T07:14:21;17.92;;;10.40;;
73359;SDS011;63092;43.582;19.528;2024-03-08T07:16:47;17.00;;;9.68;;
73359;SDS011;63092;43.582;19.528;2024-03-08T07:19:13;20.58;;;11.60;;
73359;SDS011;63092;43.582;19.528;2024-03-08T07:21:40;25.45;;;13.60;;
73359;SDS011;63092;43.582;19.528;2024-03-08T07:24:07;16.92;;;10.30;;
73359;SDS011;63092;43.582;19.528;2024-03-08T07:26:41;15.48;;;9.80;;
73359;SDS011;63092;43.582;19.528;2024-03-08T07:29:07;15.75;;;10.27;;
73359;SDS011;63092;43.582;19.528;2024-03-08T07:31:33;16.52;;;9.80;;
73359;SDS011;63092;43.582;19.528;2024-03-08T07:34:27;15.68;;;9.23;;
73359;SDS011;63092;43.582;19.528;2024-03-08T07:36:57;20.10;;;11.45;;
73359;SDS011;63092;43.582;19.528;2024-03-08T07:39:23;23.77;;;13.48;;
73359;SDS011;63092;43.582;19.528;2024-03-08T07:41:49;30.05;;;17.20;;
73359;SDS011;63092;43.582;19.528;2024-03-08T07:44:17;21.27;;;11.27;;
73359;SDS011;63092;43.582;19.528;2024-03-08T07:46:44;19.45;;;12.07;;
73359;SDS011;63092;43.582;19.528;2024-03-08T07:49:09;24.33;;;14.75;;
73359;SDS011;63092;43.582;19.528;2024-03-08T07:51:37;31.77;;;16.45;;
73359;SDS011;63092;43.582;19.528;2024-03-08T07:54:03;31.27;;;17.48;;
73359;SDS011;63092;43.582;19.528;2024-03-08T07:56:30;30.95;;;16.83;;
73359;SDS011;63092;43.582;19.528;2024-03-08T07:58:56;28.65;;;15.30;;
73359;SDS011;63092;43.582;19.528;2024-03-08T08:01:21;21.70;;;13.30;;
73359;SDS011;63092;43.582;19.528;2024-03-08T08:03:47;19.35;;;12.10;;
73359;SDS011;63092;43.582;19.528;2024-03-08T08:06:15;17.80;;;9.98;;
73359;SDS011;63092;43.582;19.528;2024-03-08T08:08:42;17.35;;;8.82;;
73359;SDS011;63092;43.582;19.528;2024-03-08T08:11:08;16.80;;;10.10;;
73359;SDS011;63092;43.582;19.528;2024-03-08T08:13:34;26.58;;;12.30;;
73359;SDS011;63092;43.582;19.528;2024-03-08T08:16:01;25.50;;;11.07;;
73359;SDS011;63092;43.582;19.528;2024-03-08T08:18:33;34.63;;;16.40;;
73359;SDS011;63092;43.582;19.528;2024-03-08T08:21:01;31.80;;;14.90;;
73359;SDS011;63092;43.582;19.528;2024-03-08T08:23:27;17.13;;;9.73;;
73359;SDS011;63092;43.582;19.528;2024-03-08T08:25:54;9.50;;;6.68;;
73359;SDS011;63092;43.582;19.528;2024-03-08T08:28:20;12.07;;;6.88;;
73359;SDS011;63092;43.582;19.528;2024-03-08T08:30:46;15.15;;;8.40;;
73359;SDS011;63092;43.582;19.528;2024-03-08T08:33:13;14.65;;;9.38;;
73359;SDS011;63092;43.582;19.528;2024-03-08T08:35:40;11.73;;;7.80;;
73359;SDS011;63092;43.582;19.528;2024-03-08T08:38:06;11.38;;;6.70;;
73359;SDS011;63092;43.582;19.528;2024-03-08T08:40:32;12.38;;;6.97;;
73359;SDS011;63092;43.582;19.528;2024-03-08T08:42:58;14.93;;;8.95;;
73359;SDS011;63092;43.582;19.528;2024-03-08T08:45:25;16.98;;;13.77;;
73359;SDS011;63092;43.582;19.528;2024-03-08T08:47:51;17.02;;;10.98;;
73359;SDS011;63092;43.582;19.528;2024-03-08T08:50:18;22.25;;;14.23;;
73359;SDS011;63092;43.582;19.528;2024-03-08T08:52:50;15.50;;;9.05;;
73359;SDS011;63092;43.582;19.528;2024-03-08T08:55:16;15.85;;;9.80;;
73359;SDS011;63092;43.582;19.528;2024-03-08T08:57:45;14.55;;;8.13;;
73359;SDS011;63092;43.582;19.528;2024-03-08T09:00:13;13.02;;;7.72;;
73359;SDS011;63092;43.582;19.528;2024-03-08T09:02:42;12.32;;;6.70;;
73359;SDS011;63092;43.582;19.528;2024-03-08T09:05:08;13.23;;;7.97;;
73359;SDS011;63092;43.582;19.528;2024-03-08T09:07:34;15.73;;;9.68;;
73359;SDS011;63092;43.582;19.528;2024-03-08T09:09:59;14.40;;;8.60;;
73359;SDS011;63092;43.582;19.528;2024-03-08T09:12:26;9.18;;;5.88;;
73359;SDS011;63092;43.582;19.528;2024-03-08T09:14:52;9.27;;;5.40;;
73359;SDS011;63092;43.582;19.528;2024-03-08T09:17:17;11.15;;;7.18;;
73359;SDS011;63092;43.582;19.528;2024-03-08T09:19:48;9.88;;;6.13;;
73359;SDS011;63092;43.582;19.528;2024-03-08T09:22:14;6.55;;;3.85;;
73359;SDS011;63092;43.582;19.528;2024-03-08T09:24:39;9.35;;;4.40;;
73359;SDS011;63092;43.582;19.528;2024-03-08T09:27:05;9.45;;;6.03;;
73359;SDS011;63092;43.582;19.528;2024-03-08T09:29:31;9.75;;;5.10;;
73359;SDS011;63092;43.582;19.528;2024-03-08T09:31:57;7.68;;;4.30;;
73359;SDS011;63092;43.582;19.528;2024-03-08T09:34:22;8.43;;;5.13;;
73359;SDS011;63092;43.582;19.528;2024-03-08T09:36:48;8.85;;;4.95;;
73359;SDS011;63092;43.582;19.528;2024-03-08T09:39:16;10.25;;;5.88;;
73359;SDS011;63092;43.582;19.528;2024-03-08T09:41:46;16.52;;;7.65;;
73359;SDS011;63092;43.582;19.528;2024-03-08T09:44:15;20.00;;;7.95;;
73359;SDS011;63092;43.582;19.528;2024-03-08T09:46:44;14.23;;;6.90;;
73359;SDS011;63092;43.582;19.528;2024-03-08T09:49:12;6.40;;;3.63;;
73359;SDS011;63092;43.582;19.528;2024-03-08T09:51:38;4.95;;;2.80;;
73359;SDS011;63092;43.582;19.528;2024-03-08T09:54:07;8.33;;;4.53;;
73359;SDS011;63092;43.582;19.528;2024-03-08T09:56:33;19.08;;;11.20;;
73359;SDS011;63092;43.582;19.528;2024-03-08T09:59:01;27.38;;;14.85;;
73359;SDS011;63092;43.582;19.528;2024-03-08T10:01:33;11.30;;;6.53;;
73359;SDS011;63092;43.582;19.528;2024-03-08T10:03:59;7.72;;;4.80;;
73359;SDS011;63092;43.582;19.528;2024-03-08T10:06:24;68.63;;;33.33;;
73359;SDS011;63092;43.582;19.528;2024-03-08T10:08:50;5.80;;;3.42;;
73359;SDS011;63092;43.582;19.528;2024-03-08T10:11:20;9.38;;;5.35;;
73359;SDS011;63092;43.582;19.528;2024-03-08T10:13:47;18.05;;;12.32;;
73359;SDS011;63092;43.582;19.528;2024-03-08T10:16:13;12.60;;;7.85;;
73359;SDS011;63092;43.582;19.528;2024-03-08T10:18:39;15.45;;;9.00;;
73359;SDS011;63092;43.582;19.528;2024-03-08T10:21:06;12.32;;;7.65;;
73359;SDS011;63092;43.582;19.528;2024-03-08T10:23:35;8.55;;;5.65;;
73359;SDS011;63092;43.582;19.528;2024-03-08T10:26:19;16.25;;;9.10;;
73359;SDS011;63092;43.582;19.528;2024-03-08T10:28:50;24.88;;;11.10;;
73359;SDS011;63092;43.582;19.528;2024-03-08T10:31:17;9.38;;;4.90;;
73359;SDS011;63092;43.582;19.528;2024-03-08T10:33:45;7.15;;;3.40;;
73359;SDS011;63092;43.582;19.528;2024-03-08T10:36:11;6.63;;;3.47;;
73359;SDS011;63092;43.582;19.528;2024-03-08T10:38:39;26.20;;;12.85;;
73359;SDS011;63092;43.582;19.528;2024-03-08T10:41:07;28.92;;;14.73;;
73359;SDS011;63092;43.582;19.528;2024-03-08T10:43:42;26.77;;;13.25;;
73359;SDS011;63092;43.582;19.528;2024-03-08T10:49:07;26.80;;;13.43;;
73359;SDS011;63092;43.582;19.528;2024-03-08T10:51:40;14.85;;;8.00;;
73359;SDS011;63092;43.582;19.528;2024-03-08T10:54:07;20.27;;;11.68;;
73359;SDS011;63092;43.582;19.528;2024-03-08T10:56:35;25.45;;;14.10;;
73359;SDS011;63092;43.582;19.528;2024-03-08T10:59:01;32.83;;;15.95;;
73359;SDS011;63092;43.582;19.528;2024-03-08T11:01:29;33.85;;;16.50;;
73359;SDS011;63092;43.582;19.528;2024-03-08T11:03:55;20.35;;;10.10;;
73359;SDS011;63092;43.582;19.528;2024-03-08T11:06:22;20.58;;;10.52;;
73359;SDS011;63092;43.582;19.528;2024-03-08T11:08:55;31.08;;;14.07;;
73359;SDS011;63092;43.582;19.528;2024-03-08T11:11:31;7.25;;;4.55;;
73359;SDS011;63092;43.582;19.528;2024-03-08T11:14:00;6.40;;;3.47;;
73359;SDS011;63092;43.582;19.528;2024-03-08T11:18:57;10.10;;;4.97;;
73359;SDS011;63092;43.582;19.528;2024-03-08T11:21:44;7.20;;;4.22;;
73359;SDS011;63092;43.582;19.528;2024-03-08T11:24:13;10.35;;;5.05;;
73359;SDS011;63092;43.582;19.528;2024-03-08T11:26:41;26.02;;;12.20;;
73359;SDS011;63092;43.582;19.528;2024-03-08T11:34:43;33.38;;;15.60;;
73359;SDS011;63092;43.582;19.528;2024-03-08T11:37:15;40.85;;;22.08;;
73359;SDS011;63092;43.582;19.528;2024-03-08T11:40:01;27.33;;;14.02;;
73359;SDS011;63092;43.582;19.528;2024-03-08T11:42:29;16.25;;;8.98;;
73359;SDS011;63092;43.582;19.528;2024-03-08T11:44:56;31.35;;;17.45;;
73359;SDS011;63092;43.582;19.528;2024-03-08T11:47:23;18.55;;;8.88;;
73359;SDS011;63092;43.582;19.528;2024-03-08T11:49:48;13.70;;;5.63;;
73359;SDS011;63092;43.582;19.528;2024-03-08T11:52:15;37.03;;;13.85;;
73359;SDS011;63092;43.582;19.528;2024-03-08T11:54:42;8.55;;;3.75;;
73359;SDS011;63092;43.582;19.528;2024-03-08T11:57:08;13.07;;;6.80;;
73359;SDS011;63092;43.582;19.528;2024-03-08T11:59:37;9.15;;;4.55;;
73359;SDS011;63092;43.582;19.528;2024-03-08T12:02:03;12.50;;;7.18;;
73359;SDS011;63092;43.582;19.528;2024-03-08T12:04:30;11.40;;;6.07;;
73359;SDS011;63092;43.582;19.528;2024-03-08T12:07:00;9.18;;;5.55;;
73359;SDS011;63092;43.582;19.528;2024-03-08T12:09:27;8.93;;;4.65;;
73359;SDS011;63092;43.582;19.528;2024-03-08T12:11:56;12.77;;;5.65;;
73359;SDS011;63092;43.582;19.528;2024-03-08T12:14:24;9.70;;;5.13;;
73359;SDS011;63092;43.582;19.528;2024-03-08T12:16:50;7.32;;;3.88;;
73359;SDS011;63092;43.582;19.528;2024-03-08T12:19:16;5.10;;;2.92;;
73359;SDS011;63092;43.582;19.528;2024-03-08T12:21:42;8.80;;;4.15;;
73359;SDS011;63092;43.582;19.528;2024-03-08T12:24:14;10.13;;;4.60;;
73359;SDS011;63092;43.582;19.528;2024-03-08T12:26:47;7.25;;;3.97;;
73359;SDS011;63092;43.582;19.528;2024-03-08T12:29:25;8.10;;;3.92;;
73359;SDS011;63092;43.582;19.528;2024-03-08T12:31:57;6.10;;;3.40;;
73359;SDS011;63092;43.582;19.528;2024-03-08T12:34:27;6.38;;;3.50;;
73359;SDS011;63092;43.582;19.528;2024-03-08T12:36:53;5.38;;;3.38;;
73359;SDS011;63092;43.582;19.528;2024-03-08T12:39:20;7.80;;;4.28;;
73359;SDS011;63092;43.582;19.528;2024-03-08T12:41:52;5.70;;;3.20;;
73359;SDS011;63092;43.582;19.528;2024-03-08T12:44:22;10.43;;;7.85;;
73359;SDS011;63092;43.582;19.528;2024-03-08T12:46:48;11.15;;;8.63;;
73359;SDS011;63092;43.582;19.528;2024-03-08T12:49:14;6.45;;;3.67;;
73359;SDS011;63092;43.582;19.528;2024-03-08T12:51:43;5.10;;;2.60;;
73359;SDS011;63092;43.582;19.528;2024-03-08T12:54:10;5.05;;;2.70;;
73359;SDS011;63092;43.582;19.528;2024-03-08T12:56:36;6.25;;;3.03;;
73359;SDS011;63092;43.582;19.528;2024-03-08T12:59:05;6.85;;;3.30;;
73359;SDS011;63092;43.582;19.528;2024-03-08T13:01:33;8.00;;;4.00;;
73359;SDS011;63092;43.582;19.528;2024-03-08T13:04:02;16.65;;;10.18;;
73359;SDS011;63092;43.582;19.528;2024-03-08T13:06:29;37.55;;;21.67;;
73359;SDS011;63092;43.582;19.528;2024-03-08T13:08:56;12.20;;;6.93;;
73359;SDS011;63092;43.582;19.528;2024-03-08T13:11:23;8.55;;;5.40;;
73359;SDS011;63092;43.582;19.528;2024-03-08T13:13:50;9.35;;;5.47;;
73359;SDS011;63092;43.582;19.528;2024-03-08T13:16:16;6.60;;;4.30;;
73359;SDS011;63092;43.582;19.528;2024-03-08T13:18:44;9.93;;;6.28;;
73359;SDS011;63092;43.582;19.528;2024-03-08T13:21:16;9.02;;;5.00;;
73359;SDS011;63092;43.582;19.528;2024-03-08T13:23:44;8.88;;;4.47;;
73359;SDS011;63092;43.582;19.528;2024-03-08T13:26:12;17.63;;;10.23;;
73359;SDS011;63092;43.582;19.528;2024-03-08T13:28:47;5.38;;;3.30;;
73359;SDS011;63092;43.582;19.528;2024-03-08T13:31:18;9.55;;;4.65;;
73359;SDS011;63092;43.582;19.528;2024-03-08T13:33:47;7.15;;;4.30;;
73359;SDS011;63092;43.582;19.528;2024-03-08T13:36:14;8.75;;;5.30;;
73359;SDS011;63092;43.582;19.528;2024-03-08T13:38:46;9.93;;;5.30;;
73359;SDS011;63092;43.582;19.528;2024-03-08T13:41:13;6.82;;;3.75;;
73359;SDS011;63092;43.582;19.528;2024-03-08T13:43:41;16.58;;;7.78;;
73359;SDS011;63092;43.582;19.528;2024-03-08T13:46:08;13.75;;;6.75;;
73359;SDS011;63092;43.582;19.528;2024-03-08T13:48:35;8.75;;;4.60;;
73359;SDS011;63092;43.582;19.528;2024-03-08T13:51:03;3.80;;;2.33;;
73359;SDS011;63092;43.582;19.528;2024-03-08T13:53:31;5.65;;;3.10;;
73359;SDS011;63092;43.582;19.528;2024-03-08T13:55:59;12.90;;;5.50;;
73359;SDS011;63092;43.582;19.528;2024-03-08T13:58:27;10.25;;;5.55;;
73359;SDS011;63092;43.582;19.528;2024-03-08T14:00:52;8.40;;;4.50;;
73359;SDS011;63092;43.582;19.528;2024-03-08T14:03:18;4.13;;;2.33;;
73359;SDS011;63092;43.582;19.528;2024-03-08T14:05:45;5.13;;;2.10;;
73359;SDS011;63092;43.582;19.528;2024-03-08T14:08:12;3.83;;;2.28;;
73359;SDS011;63092;43.582;19.528;2024-03-08T14:10:38;4.60;;;2.50;;
73359;SDS011;63092;43.582;19.528;2024-03-08T14:13:04;5.68;;;2.67;;
73359;SDS011;63092;43.582;19.528;2024-03-08T14:15:31;4.95;;;2.45;;
73359;SDS011;63092;43.582;19.528;2024-03-08T14:17:58;3.85;;;2.47;;
73359;SDS011;63092;43.582;19.528;2024-03-08T14:20:24;5.97;;;3.90;;
73359;SDS011;63092;43.582;19.528;2024-03-08T14:22:51;17.48;;;8.02;;
73359;SDS011;63092;43.582;19.528;2024-03-08T14:25:17;5.07;;;2.78;;
73359;SDS011;63092;43.582;19.528;2024-03-08T14:27:46;4.60;;;2.58;;
73359;SDS011;63092;43.582;19.528;2024-03-08T14:30:12;5.38;;;3.10;;
73359;SDS011;63092;43.582;19.528;2024-03-08T14:32:38;6.43;;;3.70;;
73359;SDS011;63092;43.582;19.528;2024-03-08T14:35:04;7.97;;;3.55;;
73359;SDS011;63092;43.582;19.528;2024-03-08T14:37:31;4.47;;;2.75;;
73359;SDS011;63092;43.582;19.528;2024-03-08T14:39:56;5.28;;;3.03;;